Terminal Aerodrome Forecast
Issued by NWS

Home | Current Version | Previous Version | Text Only | Print | Product List | Glossary On
Versions: 1 2 3 4 5 6 7 8 9 10 11 12 13 14 15 16
879
FTUS41 KCLE 291954 AAB
TAFFDY
TAF AMD
KFDY 291954Z 2920/3018 06012G20KT P6SM OVC015
      TEMPO 2920/2921 OVC010
     FM292100 06015G25KT P6SM OVC040
     FM300400 09013KT P6SM OVC010
     FM301600 20015G25KT P6SM OVC035=

USA.gov is the U.S. government's official web portal to all federal, state and local government web resources and services.